Time;durP1;ratioP1;P1;durP2;ratioP2;P2;SDS_P1;SDS_P2;PMS_P1;PMS_P2;Temp;Humidity;BMP_temperature;BMP_pressure;BME280_temperature;BME280_humidity;BME280_pressure;Samples;Min_cycle;Max_cycle;Signal;HPM_P1;HPM_P2
2021/05/15 00:00:39;;;;;;;;;;;;;;;20.89;43.32;100404.41;2215874;39;113721;-53
2021/05/15 00:02:12;;;;;;;;;;;;;;;20.85;43.80;100402.22;2216835;39;114135;-53
2021/05/15 00:03:46;;;;;;;;;;;;;;;20.84;43.61;100394.97;2215099;39;114068;-53
2021/05/15 00:05:19;;;;;;;;;;;;;;;20.85;43.49;100392.97;2215717;39;113617;-53
2021/05/15 00:06:53;;;;;;;;;;;;;;;20.84;43.17;100388.53;2216624;39;113950;-53
2021/05/15 00:08:23;;;;;;;;;;;;;;;20.84;43.63;100392.16;2216435;39;114088;-54
2021/05/15 00:09:54;;;;;;;;;;;;;;;20.84;43.54;100392.16;2207768;39;113745;-53
2021/05/15 00:11:28;;;;;;;;;;;;;;;20.81;43.66;100389.16;2213528;39;113805;-53
2021/05/15 00:13:01;;;;;;;;;;;;;;;20.84;43.75;100383.75;2219701;39;114172;-54
2021/05/15 00:14:35;;;;;;;;;;;;;;;20.82;43.92;100388.00;2208326;39;114745;-54
2021/05/15 00:16:08;;;;;;;;;;;;;;;20.81;43.47;100384.38;2215500;39;114543;-53
2021/05/15 00:17:44;;;;;;;;;;;;;;;20.80;43.58;100377.09;2206480;39;114503;-54
2021/05/15 00:19:17;;;;;;;;;;;;;;;20.80;43.75;100374.28;2205175;39;114461;-53
2021/05/15 00:20:51;;;;;;;;;;;;;;;20.81;43.56;100375.13;2213832;39;114309;-53
2021/05/15 00:22:22;;;;;;;;;;;;;;;20.79;43.87;100372.66;2208367;39;114251;-53
2021/05/15 00:23:55;;;;;;;;;;;;;;;20.81;43.95;100366.69;2207425;39;114234;-53
2021/05/15 00:25:26;;;;;;;;;;;;;;;20.79;43.60;100361.44;2213738;39;114243;-53
2021/05/15 00:27:00;;;;;;;;;;;;;;;20.79;43.82;100357.78;2208482;39;114242;-53
2021/05/15 00:28:33;;;;;;;;;;;;;;;20.78;43.52;100356.13;2213816;39;114353;-52
2021/05/15 00:30:08;;;;;;;;;;;;;;;20.76;43.59;100350.81;2215472;39;114681;-53
2021/05/15 00:31:42;;;;;;;;;;;;;;;20.77;43.69;100352.50;2215841;39;114254;-53
2021/05/15 00:33:15;;;;;;;;;;;;;;;20.74;43.93;100352.31;2215530;39;114189;-53
2021/05/15 00:34:49;;;;;;;;;;;;;;;20.76;43.99;100347.19;2217875;39;114373;-53
2021/05/15 00:36:22;;;;;;;;;;;;;;;20.76;43.66;100350.81;2208790;39;114100;-53
2021/05/15 00:37:53;;;;;;;;;;;;;;;20.75;43.84;100343.56;2207911;39;114035;-54
2021/05/15 00:39:26;;;;;;;;;;;;;;;20.76;43.65;100335.97;2214294;39;114022;-53
2021/05/15 00:41:00;;;;;;;;;;;;;;;20.75;44.12;100334.31;2215269;39;113761;-54
2021/05/15 00:42:34;;;;;;;;;;;;;;;20.74;43.81;100330.69;2215250;39;113694;-53
2021/05/15 00:45:42;;;;;;;;;;;;;;;20.72;44.08;100338.59;2210040;39;113745;-53
2021/05/15 00:47:14;;;;;;;;;;;;;;;20.74;43.77;100336.31;2213034;39;113799;-53
2021/05/15 00:48:47;;;;;;;;;;;;;;;20.73;43.72;100331.00;2206752;39;113726;-53
2021/05/15 00:50:18;;;;;;;;;;;;;;;20.72;44.01;100332.97;2212186;39;113707;-53
2021/05/15 00:51:52;;;;;;;;;;;;;;;20.72;44.02;100327.38;2208231;39;113833;-54
2021/05/15 00:53:23;;;;;;;;;;;;;;;20.71;43.88;100322.09;2212361;39;113848;-54
2021/05/15 00:54:56;;;;;;;;;;;;;;;20.68;44.25;100326.38;2216281;39;113662;-54
2021/05/15 00:56:28;;;;;;;;;;;;;;;20.68;44.09;100331.97;2218624;39;114041;-53
2021/05/15 00:58:03;;;;;;;;;;;;;;;20.68;43.86;100319.91;2215216;39;114022;-53
2021/05/15 00:59:37;;;;;;;;;;;;;;;20.67;44.29;100309.88;2209943;39;114021;-53
2021/05/15 01:01:11;;;;;;;;;;;;;;;20.69;44.23;100310.34;2206654;39;114053;-54
2021/05/15 01:02:41;;;;;;;;;;;;;;;20.66;43.95;100323.06;2208119;39;114020;-53
2021/05/15 01:04:15;;;;;;;;;;;;;;;20.68;43.85;100315.13;2204318;39;113879;-53
2021/05/15 01:05:48;;;;;;;;;;;;;;;20.68;43.91;100314.31;2210841;39;113917;-53
2021/05/15 01:07:22;;;;;;;;;;;;;;;20.68;44.20;100317.09;2215353;39;113937;-56
2021/05/15 01:08:56;;;;;;;;;;;;;;;20.65;44.25;100312.97;2216544;39;113835;-54
2021/05/15 01:10:29;;;;;;;;;;;;;;;20.67;44.18;100312.66;2214616;39;113992;-57
2021/05/15 01:12:04;;;;;;;;;;;;;;;20.68;44.05;100312.31;2215992;39;114290;-53
2021/05/15 01:13:38;;;;;;;;;;;;;;;20.66;44.19;100311.00;2208269;39;114154;-53
2021/05/15 01:15:12;;;;;;;;;;;;;;;20.65;44.42;100303.72;2208534;39;114152;-54
2021/05/15 01:16:48;;;;;;;;;;;;;;;20.65;44.32;100306.53;2213859;39;114048;-53
2021/05/15 01:18:24;;;;;;;;;;;;;;;20.64;44.33;100302.06;2217575;39;113806;-53
2021/05/15 01:19:57;;;;;;;;;;;;;;;20.62;44.89;100302.41;2208448;39;114436;-56
2021/05/15 01:21:31;;;;;;;;;;;;;;;20.64;44.82;100304.88;2210054;39;114198;-54
2021/05/15 01:23:02;;;;;;;;;;;;;;;20.65;44.57;100304.56;2209834;39;114256;-53
2021/05/15 01:24:36;;;;;;;;;;;;;;;20.64;44.90;100300.09;2213322;39;114450;-53
2021/05/15 01:26:12;;;;;;;;;;;;;;;20.64;44.67;100290.84;2208255;39;114746;-53
2021/05/15 01:27:45;;;;;;;;;;;;;;;20.63;44.42;100292.00;2207888;39;114327;-54
2021/05/15 01:29:19;;;;;;;;;;;;;;;20.63;44.68;100290.00;2213473;39;114227;-53
2021/05/15 01:30:52;;;;;;;;;;;;;;;20.62;44.32;100282.78;2215249;39;114366;-53
2021/05/15 01:32:26;;;;;;;;;;;;;;;20.62;44.46;100279.13;2214880;39;114427;-53
2021/05/15 01:34:00;;;;;;;;;;;;;;;20.59;44.55;100280.59;2216711;39;114127;-53
2021/05/15 01:35:33;;;;;;;;;;;;;;;20.57;44.57;100271.69;2206279;39;114572;-53
2021/05/15 01:37:07;;;;;;;;;;;;;;;20.60;44.49;100278.63;2211837;39;114353;-53
2021/05/15 01:38:40;;;;;;;;;;;;;;;20.59;44.55;100271.34;2208826;39;114483;-53
2021/05/15 01:40:14;;;;;;;;;;;;;;;20.59;44.44;100279.75;2204133;39;114247;-53
2021/05/15 01:41:45;;;;;;;;;;;;;;;20.57;44.69;100274.50;2214747;39;114248;-55
2021/05/15 01:43:17;;;;;;;;;;;;;;;20.57;44.40;100262.44;2214847;39;113978;-53
2021/05/15 01:44:51;;;;;;;;;;;;;;;20.57;44.62;100265.25;2206295;39;114707;-53
2021/05/15 01:46:22;;;;;;;;;;;;;;;20.55;44.49;100265.56;2212317;39;114037;-53
2021/05/15 01:47:55;;;;;;;;;;;;;;;20.54;44.55;100265.88;2215594;39;113656;-53
2021/05/15 01:49:29;;;;;;;;;;;;;;;20.55;44.42;100259.13;2216756;39;113579;-53
2021/05/15 01:51:05;;;;;;;;;;;;;;;20.56;44.69;100257.97;2215338;39;113942;-53
2021/05/15 01:52:39;;;;;;;;;;;;;;;20.55;44.70;100264.72;2212800;39;113657;-53
2021/05/15 01:54:12;;;;;;;;;;;;;;;20.54;44.58;100254.66;2216487;39;113821;-54
2021/05/15 01:55:46;;;;;;;;;;;;;;;20.53;44.75;100248.25;2216420;39;113668;-54
2021/05/15 01:57:16;;;;;;;;;;;;;;;20.53;44.30;100244.59;2205775;39;113827;-53
2021/05/15 01:58:51;;;;;;;;;;;;;;;20.53;44.76;100247.41;2210490;39;113817;-53
2021/05/15 02:00:24;;;;;;;;;;;;;;;20.52;44.57;100240.97;2216942;39;113854;-53
2021/05/15 02:01:58;;;;;;;;;;;;;;;20.50;44.98;100226.41;2217427;39;113552;-56
2021/05/15 02:03:32;;;;;;;;;;;;;;;20.50;44.90;100231.19;2219447;39;113793;-53
2021/05/15 02:05:03;;;;;;;;;;;;;;;20.51;44.84;100230.06;2209914;39;114656;-53
2021/05/15 02:06:33;;;;;;;;;;;;;;;20.52;44.72;100229.75;2214016;39;113762;-53
2021/05/15 02:08:09;;;;;;;;;;;;;;;20.51;44.80;100219.66;2216182;39;113578;-53
2021/05/15 02:09:42;;;;;;;;;;;;;;;20.50;44.55;100220.81;2215028;39;114088;-53
2021/05/15 02:11:17;;;;;;;;;;;;;;;20.48;44.54;100211.91;2216672;39;113691;-53
2021/05/15 02:12:47;;;;;;;;;;;;;;;20.48;44.91;100217.50;2203284;39;113782;-53
2021/05/15 02:14:18;;;;;;;;;;;;;;;20.48;44.53;100213.88;2209456;39;113752;-53
2021/05/15 02:15:48;;;;;;;;;;;;;;;20.47;44.89;100212.22;2214911;39;113870;-53
2021/05/15 02:17:19;;;;;;;;;;;;;;;20.48;45.21;100211.91;2210010;39;113975;-54
2021/05/15 02:18:52;;;;;;;;;;;;;;;20.46;44.83;100211.38;2213477;39;113805;-52
2021/05/15 02:20:26;;;;;;;;;;;;;;;20.48;45.02;100205.47;2208977;39;114903;-53
2021/05/15 02:22:00;;;;;;;;;;;;;;;20.49;44.92;100207.91;2215092;39;113981;-53
2021/05/15 02:23:31;;;;;;;;;;;;;;;20.50;44.95;100197.53;2213562;39;113853;-53
2021/05/15 02:25:01;;;;;;;;;;;;;;;20.50;44.94;100198.34;2216603;39;114040;-53
2021/05/15 02:26:32;;;;;;;;;;;;;;;20.47;45.17;100190.59;2209379;39;114870;-53
2021/05/15 02:28:06;;;;;;;;;;;;;;;20.47;45.10;100186.97;2214860;39;114256;-53
2021/05/15 02:29:36;;;;;;;;;;;;;;;20.49;44.78;100184.66;2209415;39;114153;-53
2021/05/15 02:31:07;;;;;;;;;;;;;;;20.47;44.92;100179.38;2209999;39;114227;-52
2021/05/15 02:32:37;;;;;;;;;;;;;;;20.46;44.74;100174.91;2214280;39;114828;-54
2021/05/15 02:34:08;;;;;;;;;;;;;;;20.47;44.86;100170.13;2214282;39;114105;-53
2021/05/15 02:35:41;;;;;;;;;;;;;;;20.47;45.08;100170.97;2215988;39;115043;-53
2021/05/15 02:37:15;;;;;;;;;;;;;;;20.45;44.84;100169.59;2211746;39;114263;-52
2021/05/15 02:38:50;;;;;;;;;;;;;;;20.45;44.91;100173.25;2216653;39;114774;-53
2021/05/15 02:40:24;;;;;;;;;;;;;;;20.44;45.02;100165.19;2211842;39;114363;-53
2021/05/15 02:41:55;;;;;;;;;;;;;;;20.46;45.17;100166.50;2203206;39;114226;-53
2021/05/15 02:43:25;;;;;;;;;;;;;;;20.45;44.78;100170.44;2212486;39;114639;-53
2021/05/15 02:44:56;;;;;;;;;;;;;;;20.46;44.79;100169.28;2207926;39;114355;-53
2021/05/15 02:46:29;;;;;;;;;;;;;;;20.44;44.96;100160.41;2216775;39;114260;-53
2021/05/15 02:48:00;;;;;;;;;;;;;;;20.44;45.07;100154.78;2209152;39;113948;-54
2021/05/15 02:49:31;;;;;;;;;;;;;;;20.44;44.77;100154.78;2209955;39;114018;-56
2021/05/15 02:51:04;;;;;;;;;;;;;;;20.42;45.06;100154.28;2206877;39;114024;-53
2021/05/15 02:52:38;;;;;;;;;;;;;;;20.41;44.74;100163.84;2214189;39;114191;-53
2021/05/15 02:54:09;;;;;;;;;;;;;;;20.40;44.88;100151.78;2215839;39;113550;-53
2021/05/15 02:55:43;;;;;;;;;;;;;;;20.43;45.26;100153.13;2217316;39;113650;-52
2021/05/15 02:57:16;;;;;;;;;;;;;;;20.42;44.86;100154.28;2209656;39;113837;-53
2021/05/15 02:58:50;;;;;;;;;;;;;;;20.41;45.25;100149.81;2212044;39;113934;-53
2021/05/15 03:00:25;;;;;;;;;;;;;;;20.42;45.36;100145.84;2214079;39;113981;-53
2021/05/15 03:01:59;;;;;;;;;;;;;;;20.37;45.28;100138.41;2215834;39;113588;-54
2021/05/15 03:03:33;;;;;;;;;;;;;;;20.41;45.01;100132.97;2213912;39;114049;-52
2021/05/15 03:05:05;;;;;;;;;;;;;;;20.40;45.40;100131.31;2210187;39;113990;-53
2021/05/15 03:06:35;;;;;;;;;;;;;;;20.38;45.03;100134.47;2207418;39;114244;-54
2021/05/15 03:08:06;;;;;;;;;;;;;;;20.40;44.98;100134.94;2203530;39;113956;-54
2021/05/15 03:09:40;;;;;;;;;;;;;;;20.38;45.18;100126.06;2209698;39;114041;-53
2021/05/15 03:11:11;;;;;;;;;;;;;;;20.38;45.33;100131.66;2214289;39;113989;-52
2021/05/15 03:12:41;;;;;;;;;;;;;;;20.37;45.27;100117.94;2209712;39;114019;-53
2021/05/15 03:14:12;;;;;;;;;;;;;;;20.36;45.29;100122.72;2206811;39;114290;-54
2021/05/15 03:15:45;;;;;;;;;;;;;;;20.36;45.08;100117.13;2214516;39;114348;-53
2021/05/15 03:17:16;;;;;;;;;;;;;;;20.36;44.97;100116.28;2216240;39;113954;-53
2021/05/15 03:18:47;;;;;;;;;;;;;;;20.38;45.04;100122.41;2209633;39;113787;-54
2021/05/15 03:20:19;;;;;;;;;;;;;;;20.37;45.36;100112.34;2215194;39;114592;-53
2021/05/15 03:21:52;;;;;;;;;;;;;;;20.38;45.60;100120.44;2206670;39;113796;-53
2021/05/15 03:23:26;;;;;;;;;;;;;;;20.37;45.11;100107.56;2207671;39;114124;-54
2021/05/15 03:25:00;;;;;;;;;;;;;;;20.34;45.11;100108.22;2211601;39;113876;-54
2021/05/15 03:26:33;;;;;;;;;;;;;;;20.34;45.34;100102.59;2213925;39;113477;-54
2021/05/15 03:28:04;;;;;;;;;;;;;;;20.36;45.65;100100.28;2215771;39;113795;-56
2021/05/15 03:29:34;;;;;;;;;;;;;;;20.36;45.42;100107.88;2215172;39;114154;-53
2021/05/15 03:31:05;;;;;;;;;;;;;;;20.35;45.43;100111.84;2206997;39;114070;-54
2021/05/15 03:32:41;;;;;;;;;;;;;;;20.33;45.61;100100.13;2205933;39;114718;-53
2021/05/15 03:34:14;;;;;;;;;;;;;;;20.33;45.98;100097.31;2213750;39;114473;-54
2021/05/15 03:35:45;;;;;;;;;;;;;;;20.34;45.56;100101.78;2217409;39;114246;-53
2021/05/15 03:37:15;;;;;;;;;;;;;;;20.32;46.02;100099.28;2217520;39;114272;-53
2021/05/15 03:38:49;;;;;;;;;;;;;;;20.33;45.85;100095.34;2208310;39;114237;-53
2021/05/15 03:40:22;;;;;;;;;;;;;;;20.32;46.16;100088.06;2212579;39;114287;-52
2021/05/15 03:41:56;;;;;;;;;;;;;;;20.32;45.77;100090.03;2216657;39;114169;-53
2021/05/15 03:43:27;;;;;;;;;;;;;;;20.31;46.03;100089.22;2215142;39;114241;-53
2021/05/15 03:45:00;;;;;;;;;;;;;;;20.33;46.04;100083.28;2208434;39;114180;-53
2021/05/15 03:46:34;;;;;;;;;;;;;;;20.32;45.83;100084.44;2214662;39;115195;-53
2021/05/15 03:48:07;;;;;;;;;;;;;;;20.30;46.05;100078.34;2212665;39;114244;-53
2021/05/15 03:49:38;;;;;;;;;;;;;;;20.30;46.54;100075.53;2213211;39;114515;-53
2021/05/15 03:51:12;;;;;;;;;;;;;;;20.26;46.19;100074.50;2217794;39;114168;-53
2021/05/15 03:52:45;;;;;;;;;;;;;;;20.27;46.62;100074.16;2218570;39;114151;-53
2021/05/15 03:54:19;;;;;;;;;;;;;;;20.29;46.65;100071.88;2210608;39;113876;-53
2021/05/15 03:55:53;;;;;;;;;;;;;;;20.27;46.87;100073.34;2213164;39;113804;-53
2021/05/15 03:57:26;;;;;;;;;;;;;;;20.28;46.57;100073.03;2217562;39;113657;-53
2021/05/15 03:59:00;;;;;;;;;;;;;;;20.29;46.38;100071.88;2211963;39;113764;-53
2021/05/15 04:00:34;;;;;;;;;;;;;;;20.30;46.73;100067.13;2216484;39;113654;-53
2021/05/15 04:02:07;;;;;;;;;;;;;;;20.28;47.06;100064.59;2217309;39;114484;-53
2021/05/15 04:03:38;;;;;;;;;;;;;;;20.27;46.63;100067.72;2210257;39;113615;-53
2021/05/15 04:05:12;;;;;;;;;;;;;;;20.26;46.68;100066.09;2214320;39;113620;-53
2021/05/15 04:06:42;;;;;;;;;;;;;;;20.28;46.84;100069.38;2217205;39;114000;-55
2021/05/15 04:08:17;;;;;;;;;;;;;;;20.28;46.30;100064.59;2216987;39;113750;-53
2021/05/15 04:09:47;;;;;;;;;;;;;;;20.28;46.69;100064.59;2217496;39;114084;-56
2021/05/15 04:11:21;;;;;;;;;;;;;;;20.26;46.48;100061.28;2217293;39;113875;-53
2021/05/15 04:14:36;;;;;;;;;;;;;;;20.27;46.75;100053.69;2213315;39;113809;-53
2021/05/15 04:17:44;;;;;;;;;;;;;;;20.25;46.26;100051.25;2216252;39;114395;-53
2021/05/15 04:19:14;;;;;;;;;;;;;;;20.24;47.03;100045.97;2209413;39;113714;-53
2021/05/15 04:20:48;;;;;;;;;;;;;;;20.25;46.67;100045.63;2205547;39;114165;-53
2021/05/15 04:22:22;;;;;;;;;;;;;;;20.25;46.80;100040.03;2212116;39;113838;-52
2021/05/15 04:23:55;;;;;;;;;;;;;;;20.24;46.54;100041.16;2198621;39;114066;-54
2021/05/15 04:25:29;;;;;;;;;;;;;;;20.26;46.60;100035.25;2207886;39;113668;-53
2021/05/15 04:27:04;;;;;;;;;;;;;;;20.24;46.34;100035.56;2207960;39;113918;-53
2021/05/15 04:28:38;;;;;;;;;;;;;;;20.23;46.54;100038.69;2209800;39;114387;-53
2021/05/15 04:30:10;;;;;;;;;;;;;;;20.24;46.35;100029.13;2211909;39;114007;-53
2021/05/15 04:31:44;;;;;;;;;;;;;;;20.23;46.68;100025.50;2217039;39;113590;-53
2021/05/15 04:33:14;;;;;;;;;;;;;;;20.23;46.35;100028.28;2214512;39;113848;-53
2021/05/15 04:34:45;;;;;;;;;;;;;;;20.24;46.42;100024.34;2216824;39;113966;-53
2021/05/15 04:36:15;;;;;;;;;;;;;;;20.21;46.68;100022.22;2219813;39;114063;-53
2021/05/15 04:37:46;;;;;;;;;;;;;;;20.24;46.18;100023.50;2217040;39;114770;-52
2021/05/15 04:39:23;;;;;;;;;;;;;;;20.22;46.25;100015.41;2217141;39;114426;-53
2021/05/15 04:40:53;;;;;;;;;;;;;;;20.23;46.61;100017.06;2208823;39;114378;-53
2021/05/15 04:42:24;;;;;;;;;;;;;;;20.24;46.14;100009.50;2214821;39;114703;-53
2021/05/15 04:43:57;;;;;;;;;;;;;;;20.21;46.59;100008.19;2216815;39;114138;-53
2021/05/15 04:45:32;;;;;;;;;;;;;;;20.21;46.40;100004.56;2211550;39;114763;-53
2021/05/15 04:47:03;;;;;;;;;;;;;;;20.20;46.29;100008.50;2211422;39;114783;-53
2021/05/15 04:48:38;;;;;;;;;;;;;;;20.19;46.30;100004.03;2204253;39;114284;-53
2021/05/15 04:50:12;;;;;;;;;;;;;;;20.21;46.43;100007.34;2214891;39;114294;-54
2021/05/15 04:51:42;;;;;;;;;;;;;;;20.19;46.33;100015.25;2206038;39;114849;-53
2021/05/15 04:53:16;;;;;;;;;;;;;;;20.18;46.27;100005.19;2213426;39;114805;-53
2021/05/15 04:54:46;;;;;;;;;;;;;;;20.19;46.55;99998.44;2217298;39;114226;-57
2021/05/15 04:56:20;;;;;;;;;;;;;;;20.17;46.49;99990.34;2217774;39;115164;-53
2021/05/15 04:57:53;;;;;;;;;;;;;;;20.18;46.37;99997.59;2205882;39;114247;-53
2021/05/15 04:59:27;;;;;;;;;;;;;;;20.19;46.02;99996.47;2207658;39;114171;-53
2021/05/15 05:00:58;;;;;;;;;;;;;;;20.17;46.74;99998.75;2212301;39;113613;-53
2021/05/15 05:02:28;;;;;;;;;;;;;;;20.17;46.27;99995.94;2214404;39;113955;-53
2021/05/15 05:04:03;;;;;;;;;;;;;;;20.17;46.25;99995.16;2215735;39;113755;-52
2021/05/15 05:05:34;;;;;;;;;;;;;;;20.16;46.03;99988.72;2210237;39;113735;-53
2021/05/15 05:07:07;;;;;;;;;;;;;;;20.17;46.54;99997.94;2213951;39;113764;-53
2021/05/15 05:08:41;;;;;;;;;;;;;;;20.18;46.31;99988.34;2214714;39;113961;-53
2021/05/15 05:10:15;;;;;;;;;;;;;;;20.16;46.14;99987.88;2214465;39;114112;-53
2021/05/15 05:11:47;;;;;;;;;;;;;;;20.17;46.36;99986.72;2206871;39;113945;-53
2021/05/15 05:13:21;;;;;;;;;;;;;;;20.15;46.43;99991.84;2204194;39;114179;-53
2021/05/15 05:14:52;;;;;;;;;;;;;;;20.17;46.43;99983.94;2207343;39;114366;-54
2021/05/15 05:16:22;;;;;;;;;;;;;;;20.17;46.46;99981.13;2214823;39;113663;-54
2021/05/15 05:17:53;;;;;;;;;;;;;;;20.14;46.36;99985.41;2209919;39;113905;-53
2021/05/15 05:19:24;;;;;;;;;;;;;;;20.13;46.29;99982.91;2206940;39;113612;-53
2021/05/15 05:20:58;;;;;;;;;;;;;;;20.14;46.48;99987.38;2210494;39;114084;-54
2021/05/15 05:22:28;;;;;;;;;;;;;;;20.12;46.15;99976.50;2207345;39;114107;-58
2021/05/15 05:24:02;;;;;;;;;;;;;;;20.13;46.68;99977.31;2201511;39;114140;-52
2021/05/15 05:25:36;;;;;;;;;;;;;;;20.12;46.49;99970.91;2204735;39;114103;-55
2021/05/15 05:27:08;;;;;;;;;;;;;;;20.14;46.65;99967.75;2207866;39;113735;-53
2021/05/15 05:28:48;;;;;;;;;;;;;;;20.13;46.41;99977.31;2210521;39;113808;-53
2021/05/15 05:30:20;;;;;;;;;;;;;;;20.12;46.44;99972.88;2207828;39;113682;-54
2021/05/15 05:31:51;;;;;;;;;;;;;;;20.13;46.52;99968.88;2209377;39;113673;-53
2021/05/15 05:33:22;;;;;;;;;;;;;;;20.12;46.78;99970.06;2201458;39;114821;-53
2021/05/15 05:34:52;;;;;;;;;;;;;;;20.11;46.42;99969.25;2206702;39;114367;-53
2021/05/15 05:36:23;;;;;;;;;;;;;;;20.10;46.59;99961.97;2205922;39;113930;-52
2021/05/15 05:37:54;;;;;;;;;;;;;;;20.11;46.67;99969.25;2207339;39;113909;-53
2021/05/15 05:39:27;;;;;;;;;;;;;;;20.11;46.37;99962.81;2205937;39;113621;-53
2021/05/15 05:40:58;;;;;;;;;;;;;;;20.13;46.29;99963.28;2210326;39;114003;-54
2021/05/15 05:42:28;;;;;;;;;;;;;;;20.11;46.49;99960.81;2211400;39;114220;-53
2021/05/15 05:44:03;;;;;;;;;;;;;;;20.10;46.82;99963.94;2209945;39;114646;-53
2021/05/15 05:45:33;;;;;;;;;;;;;;;20.09;46.98;99960.31;2207236;39;114285;-53
2021/05/15 05:47:04;;;;;;;;;;;;;;;20.11;46.30;99960.81;2207970;39;114552;-53
2021/05/15 05:48:34;;;;;;;;;;;;;;;20.10;46.76;99955.53;2202580;39;114499;-54
2021/05/15 05:50:06;;;;;;;;;;;;;;;20.09;46.62;99951.06;2210706;39;114185;-54
2021/05/15 05:51:39;;;;;;;;;;;;;;;20.10;46.86;99952.72;2202761;39;114498;-53
2021/05/15 05:53:10;;;;;;;;;;;;;;;20.10;46.59;99947.13;2208000;39;114266;-53
2021/05/15 05:54:44;;;;;;;;;;;;;;;20.07;47.22;99954.22;2206991;39;114233;-53
2021/05/15 05:56:18;;;;;;;;;;;;;;;20.08;46.92;99947.44;2205645;39;114257;-53
2021/05/15 05:57:51;;;;;;;;;;;;;;;20.10;47.02;99947.13;2206562;39;114259;-53
2021/05/15 05:59:25;;;;;;;;;;;;;;;20.08;46.75;99941.03;2210753;39;114133;-52
2021/05/15 06:00:55;;;;;;;;;;;;;;;20.08;46.70;99935.44;2207665;39;114787;-53
2021/05/15 06:02:29;;;;;;;;;;;;;;;20.06;46.96;99938.56;2210767;39;114303;-53
2021/05/15 06:04:00;;;;;;;;;;;;;;;20.05;47.41;99938.88;2208716;39;114793;-54
2021/05/15 06:05:33;;;;;;;;;;;;;;;20.05;47.23;99930.47;2205332;39;113828;-54
2021/05/15 06:07:05;;;;;;;;;;;;;;;20.05;47.15;99930.47;2205003;39;113638;-55
2021/05/15 06:08:36;;;;;;;;;;;;;;;20.05;47.54;99928.47;2207474;39;113673;-53
2021/05/15 06:10:09;;;;;;;;;;;;;;;20.05;47.47;99928.47;2210734;39;113722;-53
2021/05/15 06:11:40;;;;;;;;;;;;;;;20.06;47.17;99929.31;2206567;39;113996;-53
2021/05/15 06:13:14;;;;;;;;;;;;;;;20.03;47.33;99925.19;2206843;39;113867;-53
2021/05/15 06:14:48;;;;;;;;;;;;;;;20.02;47.44;99928.31;2204677;39;113836;-53
2021/05/15 06:16:19;;;;;;;;;;;;;;;20.03;47.28;99918.78;2208130;39;114073;-53
2021/05/15 06:17:50;;;;;;;;;;;;;;;20.02;47.37;99919.91;2209426;39;113820;-53
2021/05/15 06:19:20;;;;;;;;;;;;;;;20.04;47.13;99918.41;2206902;39;113794;-53
2021/05/15 06:20:51;;;;;;;;;;;;;;;20.04;47.62;99914.78;2206334;39;114023;-52
2021/05/15 06:22:21;;;;;;;;;;;;;;;20.06;47.56;99910.50;2207516;39;113666;-53
2021/05/15 06:23:52;;;;;;;;;;;;;;;20.09;47.94;99915.44;2211006;39;113561;-52
2021/05/15 06:25:26;;;;;;;;;;;;;;;20.13;48.17;99908.03;2210303;39;113595;-53
2021/05/15 06:26:56;;;;;;;;;;;;;;;20.15;47.92;99908.53;2213277;39;114061;-54
2021/05/15 06:28:27;;;;;;;;;;;;;;;20.18;48.24;99909.81;2210148;39;113950;-53
2021/05/15 06:30:00;;;;;;;;;;;;;;;20.20;48.34;99910.34;2210273;39;114023;-53
2021/05/15 06:31:31;;;;;;;;;;;;;;;20.22;48.29;99908.84;2209231;39;113776;-53
2021/05/15 06:33:02;;;;;;;;;;;;;;;20.26;48.17;99911.81;2202842;39;113645;-53
2021/05/15 06:34:35;;;;;;;;;;;;;;;20.29;48.08;99909.19;2204210;39;113623;-53
2021/05/15 06:36:06;;;;;;;;;;;;;;;20.33;47.73;99910.19;2209701;39;113624;-53
2021/05/15 06:37:40;;;;;;;;;;;;;;;20.37;48.10;99913.16;2204256;39;114368;-53
2021/05/15 06:39:11;;;;;;;;;;;;;;;20.41;48.37;99916.94;2205592;39;113840;-53
2021/05/15 06:40:45;;;;;;;;;;;;;;;20.46;48.53;99905.53;2210069;39;113779;-54
2021/05/15 06:42:15;;;;;;;;;;;;;;;20.50;48.65;99909.31;2209137;39;114580;-53
2021/05/15 06:43:47;;;;;;;;;;;;;;;20.55;48.46;99909.16;2211032;39;114011;-53
2021/05/15 06:45:18;;;;;;;;;;;;;;;20.60;48.26;99914.59;2207122;39;115173;-52
2021/05/15 06:46:51;;;;;;;;;;;;;;;20.66;48.27;99906.81;2207287;39;114159;-53
2021/05/15 06:48:22;;;;;;;;;;;;;;;20.71;48.77;99903.84;2209925;39;114042;-53
2021/05/15 06:49:55;;;;;;;;;;;;;;;20.75;48.33;99900.03;2205934;39;114778;-54
2021/05/15 06:51:26;;;;;;;;;;;;;;;20.80;48.07;99899.00;2209799;39;114936;-53
2021/05/15 06:52:57;;;;;;;;;;;;;;;20.85;47.50;99893.19;2210393;39;114373;-53
2021/05/15 06:54:30;;;;;;;;;;;;;;;20.90;47.09;99900.59;2209265;39;114377;-54
2021/05/15 06:56:04;;;;;;;;;;;;;;;20.96;47.31;99899.25;2205240;39;114213;-53
2021/05/15 06:57:35;;;;;;;;;;;;;;;21.00;47.80;99889.81;2206101;39;114672;-53
2021/05/15 06:59:09;;;;;;;;;;;;;;;21.06;47.22;99898.91;2209088;39;114254;-54
2021/05/15 07:00:41;;;;;;;;;;;;;;;21.11;47.22;99893.09;2207873;39;114693;-53
2021/05/15 07:02:12;;;;;;;;;;;;;;;21.15;46.96;99894.09;2208768;39;114127;-54
2021/05/15 07:03:43;;;;;;;;;;;;;;;21.19;47.29;99886.63;2204583;39;115405;-53
2021/05/15 07:05:14;;;;;;;;;;;;;;;21.23;46.61;99888.44;2209130;39;114507;-53
2021/05/15 07:06:48;;;;;;;;;;;;;;;21.29;46.47;99886.25;2208666;39;114843;-54
2021/05/15 07:08:21;;;;;;;;;;;;;;;21.33;46.60;99890.03;2206566;39;114191;-54
2021/05/15 07:09:51;;;;;;;;;;;;;;;21.38;46.21;99889.00;2211974;39;114836;-53
2021/05/15 07:11:22;;;;;;;;;;;;;;;21.41;46.16;99883.53;2203319;39;114097;-53
2021/05/15 07:12:56;;;;;;;;;;;;;;;21.47;46.20;99881.34;2206695;39;113882;-53
2021/05/15 07:14:26;;;;;;;;;;;;;;;21.51;46.19;99885.94;2211354;39;113565;-52
2021/05/15 07:15:57;;;;;;;;;;;;;;;21.55;45.90;99883.25;2207488;39;113714;-53
2021/05/15 07:17:27;;;;;;;;;;;;;;;21.59;45.78;99878.59;2206962;39;113735;-53
2021/05/15 07:18:58;;;;;;;;;;;;;;;21.63;45.96;99877.59;2210399;39;113833;-53
2021/05/15 07:20:29;;;;;;;;;;;;;;;21.67;45.51;99877.72;2206742;39;114638;-55
2021/05/15 07:22:02;;;;;;;;;;;;;;;21.70;45.70;99872.25;2203939;39;113943;-53
2021/05/15 07:23:33;;;;;;;;;;;;;;;21.74;45.72;99873.22;2209069;39;113980;-53
2021/05/15 07:25:04;;;;;;;;;;;;;;;21.79;45.38;99872.19;2209058;39;113922;-54
2021/05/15 07:26:34;;;;;;;;;;;;;;;21.83;45.25;99875.94;2209735;39;114193;-54
2021/05/15 07:28:08;;;;;;;;;;;;;;;21.86;45.15;99872.44;2210196;39;114013;-53
2021/05/15 07:29:41;;;;;;;;;;;;;;;21.89;45.50;99868.13;2205936;39;114019;-54
2021/05/15 07:31:12;;;;;;;;;;;;;;;21.93;45.34;99869.94;2213320;39;113747;-53
2021/05/15 07:32:47;;;;;;;;;;;;;;;21.97;44.93;99867.25;2210775;39;114216;-53
2021/05/15 07:34:21;;;;;;;;;;;;;;;22.00;45.86;99860.94;2210267;39;113760;-53
2021/05/15 07:35:54;;;;;;;;;;;;;;;22.04;45.44;99864.69;2209272;39;113874;-53
2021/05/15 07:37:28;;;;;;;;;;;;;;;22.08;45.11;99862.84;2209634;39;113719;-53
2021/05/15 07:39:02;;;;;;;;;;;;;;;22.11;45.39;99864.97;2211158;39;113949;-53
2021/05/15 07:40:33;;;;;;;;;;;;;;;22.14;44.65;99859.47;2211406;39;113788;-54
2021/05/15 07:42:04;;;;;;;;;;;;;;;22.17;44.78;99857.94;2211277;39;113621;-53
2021/05/15 07:43:38;;;;;;;;;;;;;;;22.18;44.81;99856.78;2211139;39;113683;-53
2021/05/15 07:45:09;;;;;;;;;;;;;;;22.19;44.26;99858.44;2211216;39;113931;-53
2021/05/15 07:46:42;;;;;;;;;;;;;;;22.20;43.98;99862.91;2208851;39;114037;-53
2021/05/15 07:48:16;;;;;;;;;;;;;;;22.21;44.19;99850.50;2206215;39;113860;-53
2021/05/15 07:49:46;;;;;;;;;;;;;;;22.24;44.23;99858.22;2210648;39;114100;-56
2021/05/15 07:51:20;;;;;;;;;;;;;;;22.25;43.73;99851.44;2210828;39;113747;-53
2021/05/15 07:52:51;;;;;;;;;;;;;;;22.26;43.67;99850.25;2211175;39;114007;-53
2021/05/15 07:54:25;;;;;;;;;;;;;;;22.28;43.63;99852.72;2209635;39;114806;-53
2021/05/15 07:55:58;;;;;;;;;;;;;;;22.26;43.54;99844.63;2209040;39;114180;-53